Главная страница
METAR-TAF:

METAR-TAF

Аэропорты :

Батайница (военный аэродром)

Batajnica, Сербия

широта: 44-56-07N, долгота: 020-15-27E, высота над уровнем моря: 86 м

Текущие метеонаблюдения

Эта сводка был подготовлена 13 минут назад, в 21:30 UTC
Ветер 1 Узел от восточно-северо-восточный
Температура 16°C
Влажность 68%
Давление 1017 hPa
Видимость 10 км и более
Нет облачности ниже 1500 м, и нет кучево-дождевой облачности

METAR: LYBT 252130Z 06001KT CAVOK 16/10 Q1017 NOSIG

Время: 23:43 (21:43 UTC)

Прогноз

Эта сводка был подготовлена 4 часа и 43 минут назад, в 17:00 UTC
Прогноз действительный с 25-го 18 UTC до 26-го 18 UTC
Ветер 6 Узел от юго-восточный
Видимость 10 км и более
Нет облачности ниже 1500 м, и нет кучево-дождевой облачности

TAF: LYBT 251700Z 2518/2618 13006KT CAVOK TX30/2613Z TN13/2604Z

Метеонаблюдения и прогнозы для более 4000 аэропортов (сводки METAR и TAF).

Имеющиеся станции представлены на карте желтыми и красными точками.

Чтобы увидеть название станции, наведите на нее мышь.

Затем щелкните, чтобы увидеть метеонаблюдения и метеопрогнозы.

Управление картой: чтобы увеличить масштаб, щелкните зеленые кнопки с черным крестиком; чтобы уменьшить масштаб, щелкните зеленую кнопку с тире; для просмотра соседних карт щелкайте зеленые стрелки.


METAR-TAF: